Fantasy — H3GS — position and weather

sailwx.info

Track history (hours):
 
Tides and Currents Weather Stations Pressure Air Temp Water Temp Dewpoint Dewpoint Depression Visibility Wind Speed Wind Dir Waves Ship Positions

Fantasy

Operator: Carnival Cruise Lines

Last reported at 2017-Feb-23 22:33 UTC. Time now 2017-Feb-24 08:21 UTC.
Position N 20°32' W 086°58'.

Type: Ship. MMSI: 353486000.

Date/timePositionNaut miles runAvg speedWind from/ knotsBaromVisibWave heightAir tempDewpointWater temp
2017-Feb-23 22:33N 20°32' W 086°58'2 1.8
2017-Feb-23 21:31N 20°31' W 086°57'0 0.0
2017-Feb-23 20:30N 20°31' W 086°57'0 0.0
2017-Feb-23 19:33N 20°31' W 086°57'0 0.0
2017-Feb-23 18:33N 20°31' W 086°57'0 0.0
2017-Feb-23 17:32N 20°31' W 086°57'0 0.0
2017-Feb-23 16:32N 20°31' W 086°57'0 0.0
2017-Feb-23 15:31N 20°31' W 086°57'0 0.0
2017-Feb-23 14:31N 20°31' W 086°57'0 0.1
2017-Feb-23 13:33N 20°31' W 086°57'6 6.4
2017-Feb-23 12:33N 20°37' W 086°55'915.4
2017-Feb-23 12:00N 20°42' W 086°48'   290 / 251009.010.8
2017-Feb-18 23:14N 20°36' W 086°56'710.8
2017-Feb-18 22:33N 20°29' W 086°59'1 0.4
2017-Feb-18 21:25N 20°29' W 086°59'0 0.0
2017-Feb-18 20:31N 20°29' W 086°59'0 0.0
2017-Feb-18 19:33N 20°29' W 086°59'0 0.0
2017-Feb-18 18:33N 20°29' W 086°59'0 0.0
2017-Feb-18 17:32N 20°29' W 086°59'0 0.0
2017-Feb-18 16:32N 20°29' W 086°59'0 0.0
2017-Feb-18 15:31N 20°29' W 086°59'0 0.0
2017-Feb-18 14:31N 20°29' W 086°59'0 0.3
2017-Feb-18 13:33N 20°29' W 086°59'10 9.1
2017-Feb-18 12:28N 20°38' W 086°55'  
2017-Feb-14 23:12N 20°37' W 086°56'812.3
2017-Feb-14 22:34N 20°30' W 086°59'1 1.4
2017-Feb-14 21:32N 20°29' W 086°59'0 0.0
2017-Feb-14 20:31N 20°29' W 086°59'0 0.0
2017-Feb-14 19:31N 20°29' W 086°59'0 0.0
2017-Feb-14 18:33N 20°29' W 086°59'0 0.0
2017-Feb-14 17:30N 20°29' W 086°59'0 0.0
2017-Feb-14 16:32N 20°29' W 086°59'0 0.0
2017-Feb-14 15:29N 20°29' W 086°59'0 0.0
2017-Feb-14 14:32N 20°29' W 086°59'1 0.8
2017-Feb-14 13:34N 20°29' W 086°59'  
Track history (hours):
 
Tides and Currents Weather Stations Pressure Air Temp Water Temp Dewpoint Dewpoint Depression Visibility Wind Speed Wind Dir Waves Ship Positions

Fantasy

Operator: Carnival Cruise Lines

Last reported at 2017-Feb-23 22:33 UTC. Time now 2017-Feb-24 08:21 UTC.
Position N 20°32' W 086°58'.

Type: Ship. MMSI: 353486000.

Date/timePositionNaut miles runAvg speedWind from/ knotsBaromVisibWave heightAir tempDewpointWater temp
2017-Feb-23 22:33N 20°32' W 086°58'2 1.8
2017-Feb-23 21:31N 20°31' W 086°57'0 0.0
2017-Feb-23 20:30N 20°31' W 086°57'0 0.0
2017-Feb-23 19:33N 20°31' W 086°57'0 0.0
2017-Feb-23 18:33N 20°31' W 086°57'0 0.0
2017-Feb-23 17:32N 20°31' W 086°57'0 0.0
2017-Feb-23 16:32N 20°31' W 086°57'0 0.0
2017-Feb-23 15:31N 20°31' W 086°57'0 0.0
2017-Feb-23 14:31N 20°31' W 086°57'0 0.1
2017-Feb-23 13:33N 20°31' W 086°57'6 6.4
2017-Feb-23 12:33N 20°37' W 086°55'915.4
2017-Feb-23 12:00N 20°42' W 086°48'   290 / 251009.010.8
2017-Feb-18 23:14N 20°36' W 086°56'710.8
2017-Feb-18 22:33N 20°29' W 086°59'1 0.4
2017-Feb-18 21:25N 20°29' W 086°59'0 0.0
2017-Feb-18 20:31N 20°29' W 086°59'0 0.0
2017-Feb-18 19:33N 20°29' W 086°59'0 0.0
2017-Feb-18 18:33N 20°29' W 086°59'0 0.0
2017-Feb-18 17:32N 20°29' W 086°59'0 0.0
2017-Feb-18 16:32N 20°29' W 086°59'0 0.0
2017-Feb-18 15:31N 20°29' W 086°59'0 0.0
2017-Feb-18 14:31N 20°29' W 086°59'0 0.3
2017-Feb-18 13:33N 20°29' W 086°59'10 9.1
2017-Feb-18 12:28N 20°38' W 086°55'  
2017-Feb-14 23:12N 20°37' W 086°56'812.3
2017-Feb-14 22:34N 20°30' W 086°59'1 1.4
2017-Feb-14 21:32N 20°29' W 086°59'0 0.0
2017-Feb-14 20:31N 20°29' W 086°59'0 0.0
2017-Feb-14 19:31N 20°29' W 086°59'0 0.0
2017-Feb-14 18:33N 20°29' W 086°59'0 0.0
2017-Feb-14 17:30N 20°29' W 086°59'0 0.0
2017-Feb-14 16:32N 20°29' W 086°59'0 0.0
2017-Feb-14 15:29N 20°29' W 086°59'0 0.0
2017-Feb-14 14:32N 20°29' W 086°59'1 0.8
2017-Feb-14 13:34N 20°29' W 086°59'  

Dump ship's entire track history